Dale, South Carolina
Current Conditions -  °F | °C
As of 4:14 PM on Saturday 20 Dec 2014 (Local Time) from KNBC Reporting Station
Overcast Overcast  
Wind Chill: 55°   Ceiling: 7000
Heat Index: 55°   Visibility: 10mi
Dew Point: 51°   Wind: 5mph
Humidity: 86%   Direction: NA
Pressure: 30.15"   Gusts: NA
Location:  32.56°N, 80.69°W
Report Text: KNBC 202114Z AUTO VRB04KT 10SM SCT009 OVC070 13/11 A3015 RMK AO2 T01280106 $
Loading
Personal Weather Stations






























Interactive Weather Map New forecast layout! Learn more

10-Day Weather Forecast

Advertisements
Track Severe Weather on mobile